createdAt,value
2024-04-12T00:01:33.302Z,78.13
2024-04-12T00:04:03.026Z,78.30
2024-04-12T00:06:29.919Z,78.71
2024-04-12T00:08:57.171Z,79.03
2024-04-12T00:11:24.177Z,79.97
2024-04-12T00:13:51.619Z,80.90
2024-04-12T00:16:18.863Z,81.86
2024-04-12T00:18:46.194Z,81.16
2024-04-12T00:21:13.195Z,80.21
2024-04-12T00:23:40.099Z,80.33
2024-04-12T00:26:08.267Z,81.15
2024-04-12T00:28:35.186Z,80.34
2024-04-12T00:31:02.949Z,80.00
2024-04-12T00:33:31.259Z,80.97
2024-04-12T00:36:02.573Z,81.28
2024-04-12T00:38:29.447Z,80.72
2024-04-12T00:40:56.720Z,80.81
2024-04-12T00:43:23.984Z,82.13
2024-04-12T00:45:50.871Z,82.79
2024-04-12T00:48:19.539Z,83.03
2024-04-12T00:50:46.471Z,81.96
2024-04-12T00:53:15.351Z,81.95
2024-04-12T00:55:42.559Z,83.46
2024-04-12T00:58:12.329Z,83.79
2024-04-12T01:00:39.495Z,83.18
2024-04-12T01:03:07.154Z,83.82
2024-04-12T01:05:38.052Z,84.63
2024-04-12T01:08:05.230Z,84.16
2024-04-12T01:10:32.559Z,83.61
2024-04-12T01:13:00.128Z,84.61
2024-04-12T01:15:28.268Z,84.81
2024-04-12T01:17:55.244Z,84.83
2024-04-12T01:20:22.228Z,85.47
2024-04-12T01:22:50.273Z,86.04
2024-04-12T01:25:17.176Z,85.93
2024-04-12T01:27:44.527Z,86.03
2024-04-12T01:30:12.817Z,85.44
2024-04-12T01:32:39.813Z,85.77
2024-04-12T01:35:06.954Z,84.89
2024-04-12T01:37:33.841Z,84.76
2024-04-12T01:40:01.032Z,84.07
2024-04-12T01:42:27.927Z,83.03
2024-04-12T01:44:57.858Z,80.27
2024-04-12T01:47:26.074Z,82.35
2024-04-12T01:49:56.122Z,84.50
2024-04-12T01:52:23.055Z,85.28
2024-04-12T01:54:49.929Z,85.99
2024-04-12T01:57:17.161Z,86.49
2024-04-12T01:59:44.113Z,87.03
2024-04-12T02:02:10.980Z,87.13
2024-04-12T02:04:38.317Z,87.67
2024-04-12T02:07:05.368Z,87.20
2024-04-12T02:09:35.285Z,87.24
2024-04-12T02:12:02.705Z,87.34
2024-04-12T02:14:29.583Z,87.26
2024-04-12T02:16:57.989Z,87.60
2024-04-12T02:19:27.781Z,87.35
2024-04-12T02:21:55.627Z,87.23
2024-04-12T02:24:23.000Z,87.82
2024-04-12T02:26:50.443Z,88.23
2024-04-12T02:29:17.366Z,88.24
2024-04-12T02:31:44.296Z,87.78
2024-04-12T02:34:11.160Z,87.84
2024-04-12T02:36:38.390Z,88.69
2024-04-12T02:39:05.434Z,89.60
2024-04-12T02:41:32.445Z,89.68
2024-04-12T02:43:59.500Z,89.60
2024-04-12T02:46:26.380Z,87.88
2024-04-12T02:48:55.179Z,84.29
2024-04-12T02:51:22.124Z,83.33
2024-04-12T02:53:49.234Z,85.81
2024-04-12T02:56:18.260Z,87.43
2024-04-12T02:58:46.376Z,87.53
2024-04-12T03:01:20.548Z,88.78
2024-04-12T03:03:52.076Z,89.40
2024-04-12T03:06:23.832Z,90.33
2024-04-12T03:09:02.859Z,89.18
2024-04-12T03:11:31.073Z,88.78
2024-04-12T03:13:59.316Z,89.49
2024-04-12T03:16:26.240Z,89.96
2024-04-12T03:18:53.839Z,90.79
2024-04-12T03:21:21.250Z,91.64
2024-04-12T03:23:49.107Z,92.33
2024-04-12T03:26:18.025Z,92.31
2024-04-12T03:28:45.442Z,92.56
2024-04-12T03:31:15.875Z,92.66
2024-04-12T03:33:43.213Z,91.72
2024-04-12T03:36:17.128Z,91.44
2024-04-12T03:38:47.125Z,91.93
2024-04-12T03:41:14.036Z,91.93
2024-04-12T03:43:40.948Z,92.83
2024-04-12T03:46:08.046Z,93.33
2024-04-12T03:48:35.090Z,93.94
2024-04-12T03:51:02.065Z,94.40
2024-04-12T03:53:28.987Z,94.89
2024-04-12T03:55:57.212Z,94.01
2024-04-12T03:58:24.423Z,93.00
2024-04-12T04:00:51.392Z,93.15
2024-04-12T04:03:18.683Z,93.63
2024-04-12T04:05:45.717Z,93.92
2024-04-12T04:08:12.572Z,93.75
2024-04-12T04:10:39.899Z,94.09
2024-04-12T04:13:26.717Z,93.69
2024-04-12T04:16:01.473Z,93.64
2024-04-12T04:18:47.596Z,93.57
2024-04-12T04:21:14.563Z,93.20
2024-04-12T04:23:42.080Z,93.05
2024-04-12T04:26:09.765Z,93.03
2024-04-12T04:28:37.147Z,93.07
2024-04-12T04:31:05.090Z,93.20
2024-04-12T04:33:32.447Z,92.54
2024-04-12T04:35:59.825Z,93.25
2024-04-12T04:38:26.705Z,94.10
2024-04-12T04:41:00.481Z,94.46
2024-04-12T04:43:27.421Z,93.91
2024-04-12T04:45:54.370Z,92.88
2024-04-12T04:48:21.297Z,92.30
2024-04-12T04:50:48.237Z,92.31
2024-04-12T04:53:15.890Z,92.14
2024-04-12T04:55:44.901Z,91.99
2024-04-12T04:58:11.868Z,92.21
2024-04-12T05:00:38.855Z,92.67
2024-04-12T05:03:05.767Z,92.46
2024-04-12T05:05:33.212Z,91.70
2024-04-12T05:08:01.273Z,91.74
2024-04-12T05:10:31.327Z,91.89
2024-04-12T05:12:58.242Z,91.64
2024-04-12T05:15:28.226Z,91.54
2024-04-12T05:17:55.546Z,90.77
2024-04-12T05:20:22.510Z,88.62
2024-04-12T05:22:49.391Z,88.76
2024-04-12T05:25:19.378Z,88.67
2024-04-12T05:27:46.225Z,88.65
2024-04-12T05:30:14.469Z,89.14
2024-04-12T05:32:41.883Z,89.90
2024-04-12T05:35:09.328Z,89.71
2024-04-12T05:37:36.172Z,86.32
2024-04-12T05:40:06.642Z,86.07
2024-04-12T05:42:34.211Z,86.39
2024-04-12T05:45:01.506Z,86.53
2024-04-12T05:47:28.546Z,87.23
2024-04-12T05:49:57.236Z,87.29
2024-04-12T05:52:24.782Z,87.92
2024-04-12T05:54:51.642Z,87.95
2024-04-12T05:57:18.539Z,86.34
2024-04-12T05:59:49.107Z,85.62
2024-04-12T06:02:16.462Z,85.13
2024-04-12T06:04:46.058Z,83.88
2024-04-12T06:07:13.402Z,80.38
2024-04-12T06:09:40.603Z,75.42
2024-04-12T06:12:07.882Z,76.84
2024-04-12T06:14:36.901Z,76.22
2024-04-12T06:17:03.879Z,72.41
2024-04-12T06:19:31.834Z,69.25
2024-04-12T06:21:59.700Z,69.93
2024-04-12T06:24:26.584Z,68.86
2024-04-12T06:26:57.108Z,69.05
2024-04-12T06:29:32.554Z,69.93
2024-04-12T06:32:03.749Z,67.02
2024-04-12T06:34:30.624Z,65.34
2024-04-12T06:36:57.675Z,65.84
2024-04-12T06:39:24.795Z,64.85
2024-04-12T06:41:51.738Z,63.88
2024-04-12T06:44:19.832Z,63.82
2024-04-12T06:46:53.295Z,63.51
2024-04-12T06:49:23.145Z,66.30
2024-04-12T06:51:52.525Z,65.03
2024-04-12T06:54:19.451Z,64.13
2024-04-12T06:56:47.669Z,64.24
2024-04-12T06:59:14.977Z,64.36
2024-04-12T07:01:41.834Z,63.42
2024-04-12T07:04:09.207Z,62.14
2024-04-12T07:06:38.724Z,62.55
2024-04-12T07:09:08.394Z,61.63
2024-04-12T07:11:38.333Z,63.66
2024-04-12T07:14:05.623Z,62.73
2024-04-12T07:16:32.933Z,62.45
2024-04-12T07:19:00.225Z,63.93
2024-04-12T07:21:27.094Z,63.65
2024-04-12T07:23:56.919Z,64.07
2024-04-12T07:26:24.250Z,63.25
2024-04-12T07:29:02.877Z,63.09
2024-04-12T07:31:31.251Z,62.59
2024-04-12T07:33:59.464Z,62.93
2024-04-12T07:36:27.303Z,61.98
2024-04-12T07:38:54.163Z,61.78
2024-04-12T07:41:21.453Z,62.38
2024-04-12T07:43:48.764Z,63.07
2024-04-12T07:46:16.399Z,63.66
2024-04-12T07:48:43.283Z,63.11
2024-04-12T07:51:10.249Z,61.55
2024-04-12T07:53:38.708Z,61.21
2024-04-12T07:56:05.890Z,61.35
2024-04-12T07:58:36.165Z,62.63
2024-04-12T08:01:12.810Z,62.75
2024-04-12T08:03:40.276Z,64.48
2024-04-12T08:06:08.540Z,64.82
2024-04-12T08:08:35.896Z,62.76
2024-04-12T08:11:03.356Z,63.19
2024-04-12T08:13:30.681Z,65.21
2024-04-12T08:15:57.582Z,63.41
2024-04-12T08:18:27.811Z,60.96
2024-04-12T08:20:54.787Z,62.97
2024-04-12T08:23:21.675Z,63.08
2024-04-12T08:25:48.536Z,63.06
2024-04-12T08:28:17.698Z,63.59
2024-04-12T08:30:44.658Z,62.72
2024-04-12T08:33:11.681Z,61.47
2024-04-12T08:35:41.070Z,63.28
2024-04-12T08:38:08.054Z,61.23
2024-04-12T08:40:35.730Z,61.30
2024-04-12T08:43:04.123Z,60.60
2024-04-12T08:45:31.025Z,59.69
2024-04-12T08:47:58.449Z,60.34
2024-04-12T08:50:26.325Z,60.01
2024-04-12T08:52:53.528Z,59.63
2024-04-12T08:55:22.435Z,59.41
2024-04-12T08:57:51.465Z,59.68
2024-04-12T09:00:18.975Z,58.28
2024-04-12T09:02:50.557Z,58.13
2024-04-12T09:05:22.093Z,56.19
2024-04-12T09:07:55.238Z,56.08
2024-04-12T09:10:27.017Z,57.24
2024-04-12T09:12:55.028Z,57.91
2024-04-12T09:15:26.423Z,57.19
2024-04-12T09:17:53.852Z,57.75
2024-04-12T09:20:21.026Z,55.96
2024-04-12T09:22:50.695Z,57.10
2024-04-12T09:25:20.375Z,58.31
2024-04-12T09:27:50.241Z,58.86
2024-04-12T09:30:17.568Z,58.15
2024-04-12T09:32:44.735Z,59.26
2024-04-12T09:35:13.348Z,58.29
2024-04-12T09:37:43.453Z,58.02
2024-04-12T09:40:10.430Z,57.70
2024-04-12T09:42:38.146Z,56.81
2024-04-12T09:45:08.413Z,57.04
2024-04-12T09:49:14.138Z,56.40
2024-04-12T09:55:18.433Z,56.97
2024-04-12T09:57:39.655Z,55.53
2024-04-12T10:00:10.276Z,55.30
2024-04-12T10:02:41.699Z,54.67
2024-04-12T10:05:09.576Z,54.63
2024-04-12T10:07:39.473Z,55.62
2024-04-12T10:10:08.036Z,53.53
2024-04-12T10:12:37.982Z,55.14
2024-04-12T10:15:06.157Z,54.62
2024-04-12T10:17:33.686Z,54.51
2024-04-12T10:20:03.982Z,53.60
2024-04-12T10:22:30.902Z,51.51
2024-04-12T10:25:02.959Z,52.80
2024-04-12T10:27:29.911Z,51.63
2024-04-12T10:29:57.027Z,51.94
2024-04-12T10:32:23.999Z,51.62
2024-04-12T10:34:52.434Z,52.39
2024-04-12T10:37:20.724Z,52.28
2024-04-12T10:39:48.677Z,51.69
2024-04-12T10:42:16.328Z,50.62
2024-04-12T10:44:44.910Z,50.82
2024-04-12T10:47:12.441Z,51.40
2024-04-12T10:49:39.998Z,50.99
2024-04-12T10:52:10.305Z,52.18
2024-04-12T10:54:37.341Z,53.63
2024-04-12T10:57:07.792Z,49.75
2024-04-12T10:59:38.362Z,50.68
2024-04-12T11:02:06.078Z,49.45
2024-04-12T11:04:33.125Z,50.17
2024-04-12T11:07:01.755Z,51.52
2024-04-12T11:09:30.087Z,48.91
2024-04-12T11:11:57.516Z,50.42
2024-04-12T11:14:24.445Z,49.06
2024-04-12T11:16:51.879Z,49.80
2024-04-12T11:19:23.888Z,50.29
2024-04-12T11:21:51.791Z,49.30
2024-04-12T11:24:19.384Z,49.04
2024-04-12T11:26:46.849Z,48.45
2024-04-12T11:29:18.158Z,49.46
2024-04-12T11:31:45.031Z,48.78
2024-04-12T11:34:13.512Z,48.93
2024-04-12T11:36:42.094Z,50.70
2024-04-12T11:39:10.966Z,48.74
2024-04-12T11:41:38.269Z,49.99
2024-04-12T11:44:05.427Z,49.14
2024-04-12T11:46:35.217Z,48.84
2024-04-12T11:49:04.445Z,48.11
2024-04-12T11:51:39.306Z,48.14
2024-04-12T11:54:06.726Z,47.21
2024-04-12T11:56:34.089Z,47.77
2024-04-12T11:59:01.065Z,47.09
2024-04-12T12:01:34.313Z,46.28
2024-04-12T12:04:01.274Z,45.15
2024-04-12T12:06:28.193Z,45.01
2024-04-12T12:08:56.404Z,45.45
2024-04-12T12:11:26.157Z,45.52
2024-04-12T12:13:55.987Z,45.46
2024-04-12T12:16:23.335Z,45.39
2024-04-12T12:18:50.344Z,47.88
2024-04-12T12:21:17.914Z,46.31
2024-04-12T12:23:47.655Z,46.25
2024-04-12T12:26:14.599Z,46.39
2024-04-12T12:28:46.524Z,47.15
2024-04-12T12:31:13.695Z,46.43
2024-04-12T12:33:41.925Z,47.89
2024-04-12T12:36:09.607Z,45.45
2024-04-12T12:38:39.535Z,46.49
2024-04-12T12:41:09.186Z,45.23
2024-04-12T12:43:37.434Z,45.67
2024-04-12T12:46:05.509Z,46.08
2024-04-12T12:48:33.655Z,45.74
2024-04-12T12:51:01.737Z,45.51
2024-04-12T12:53:31.744Z,45.78
2024-04-12T12:55:59.018Z,45.66
2024-04-12T12:58:31.354Z,45.22
2024-04-12T13:00:58.866Z,44.38
2024-04-12T13:03:25.945Z,44.48
2024-04-12T13:05:53.983Z,44.57
2024-04-12T13:08:20.963Z,43.37
2024-04-12T13:10:48.810Z,43.94
2024-04-12T13:13:16.835Z,44.35
2024-04-12T13:15:46.673Z,43.70
2024-04-12T13:18:13.955Z,42.44
2024-04-12T13:20:41.308Z,41.34
2024-04-12T13:23:08.243Z,43.63
2024-04-12T13:25:35.172Z,42.53
2024-04-12T13:28:05.598Z,42.23
2024-04-12T13:30:42.881Z,42.32
2024-04-12T13:33:10.157Z,41.58
2024-04-12T13:38:34.722Z,42.49
2024-04-12T13:41:08.816Z,41.82
2024-04-12T13:43:36.131Z,40.38
2024-04-12T13:46:04.379Z,39.78
2024-04-12T13:48:31.405Z,40.45
2024-04-12T13:50:59.077Z,39.88
2024-04-12T13:53:28.822Z,41.72
2024-04-12T13:55:56.105Z,41.02
2024-04-12T13:58:23.435Z,40.58
2024-04-12T14:00:51.039Z,41.44
2024-04-12T14:03:19.871Z,41.68
2024-04-12T14:05:48.127Z,42.36
2024-04-12T14:08:15.458Z,40.44
2024-04-12T14:10:45.089Z,40.06
2024-04-12T14:13:14.899Z,40.41
2024-04-12T14:15:42.203Z,39.77
2024-04-12T14:18:09.623Z,40.24
2024-04-12T14:20:36.865Z,38.99
2024-04-12T14:23:04.406Z,40.47
2024-04-12T14:25:31.753Z,40.23
2024-04-12T14:28:01.880Z,40.64
2024-04-12T14:30:30.163Z,39.44
2024-04-12T14:33:02.349Z,40.70
2024-04-12T14:35:29.733Z,40.00
2024-04-12T14:37:56.867Z,39.40
2024-04-12T14:40:24.208Z,38.27
2024-04-12T14:42:56.648Z,39.81
2024-04-12T14:45:23.942Z,41.56
2024-04-12T14:47:59.194Z,40.29
2024-04-12T14:50:35.124Z,39.46
2024-04-12T14:53:04.658Z,39.46
2024-04-12T14:55:32.150Z,39.89
2024-04-12T14:57:59.642Z,42.06
2024-04-12T15:00:26.807Z,41.26
2024-04-12T15:02:54.231Z,41.38
2024-04-12T15:05:21.168Z,41.28
2024-04-12T15:07:48.441Z,40.15
2024-04-12T15:10:20.266Z,40.15
2024-04-12T15:12:47.220Z,39.37
2024-04-12T15:15:14.493Z,38.58
2024-04-12T15:17:41.457Z,40.06
2024-04-12T15:20:09.156Z,37.82
2024-04-12T15:22:36.041Z,37.83
2024-04-12T15:25:08.116Z,40.68
2024-04-12T15:27:35.036Z,40.57
2024-04-12T15:30:02.209Z,39.54
2024-04-12T15:32:30.927Z,38.39
2024-04-12T15:34:58.213Z,38.43
2024-04-12T15:37:25.563Z,40.59
2024-04-12T15:39:55.340Z,39.32
2024-04-12T15:42:22.695Z,39.94
2024-04-12T15:44:50.165Z,40.05
2024-04-12T15:47:17.283Z,40.05
2024-04-12T15:49:47.594Z,41.33
2024-04-12T15:52:16.044Z,41.37
2024-04-12T15:54:48.891Z,38.38
2024-04-12T15:57:16.287Z,40.27
2024-04-12T15:59:43.660Z,41.69
2024-04-12T16:02:10.998Z,42.14
2024-04-12T16:04:38.303Z,43.16
2024-04-12T16:07:10.308Z,42.36
2024-04-12T16:09:41.592Z,42.36
2024-04-12T16:12:10.055Z,42.23
2024-04-12T16:14:37.400Z,41.12
2024-04-12T16:17:04.732Z,40.02
2024-04-12T16:19:36.968Z,40.30
2024-04-12T16:22:04.433Z,39.80
2024-04-12T16:24:36.380Z,40.89
2024-04-12T16:27:05.499Z,39.54
2024-04-12T16:29:38.645Z,40.00
2024-04-12T16:32:05.749Z,39.54
2024-04-12T16:34:33.331Z,38.41
2024-04-12T16:37:03.947Z,38.07
2024-04-12T16:39:31.299Z,39.12
2024-04-12T16:41:58.591Z,39.07
2024-04-12T16:44:25.530Z,35.82
2024-04-12T16:46:55.466Z,36.06
2024-04-12T16:49:22.762Z,34.64
2024-04-12T16:51:50.181Z,33.56
2024-04-12T16:54:26.033Z,33.16
2024-04-12T16:56:55.320Z,34.45
2024-04-12T16:59:23.288Z,35.19
2024-04-12T17:01:50.280Z,34.78
2024-04-12T17:04:18.105Z,34.28
2024-04-12T17:06:47.946Z,34.89
2024-04-12T17:09:15.754Z,32.88
2024-04-12T17:11:42.954Z,33.42
2024-04-12T17:14:10.328Z,32.98
2024-04-12T17:16:37.409Z,34.14
2024-04-12T17:19:06.350Z,34.58
2024-04-12T17:21:36.572Z,35.23
2024-04-12T17:24:03.673Z,35.35
2024-04-12T17:26:35.550Z,36.12
2024-04-12T17:29:07.788Z,34.67
2024-04-12T17:31:35.287Z,36.70
2024-04-12T17:34:09.204Z,35.12
2024-04-12T17:36:36.755Z,34.25
2024-04-12T17:39:07.277Z,36.52
2024-04-12T17:41:34.281Z,35.46
2024-04-12T17:44:01.631Z,36.02
2024-04-12T17:46:32.910Z,36.17
2024-04-12T17:49:00.508Z,36.64
2024-04-12T17:51:28.273Z,44.84
2024-04-12T17:53:55.657Z,41.51
2024-04-12T17:56:22.842Z,42.94
2024-04-12T17:58:53.525Z,50.00
2024-04-12T18:01:24.260Z,50.09
2024-04-12T18:03:55.338Z,48.74
2024-04-12T18:06:26.702Z,50.69
2024-04-12T18:09:12.938Z,53.07
2024-04-12T18:14:10.865Z,56.57
2024-04-12T18:18:32.261Z,61.31
2024-04-12T18:21:04.305Z,60.53
2024-04-12T18:23:33.978Z,61.35
2024-04-12T18:26:06.264Z,65.09
2024-04-12T18:28:33.567Z,62.53
2024-04-12T18:31:03.355Z,64.35
2024-04-12T18:33:30.712Z,63.38
2024-04-12T18:35:57.976Z,64.50
2024-04-12T18:38:24.920Z,62.53
2024-04-12T18:40:55.223Z,67.08
2024-04-12T18:43:23.268Z,66.77
2024-04-12T18:45:50.550Z,67.71
2024-04-12T18:48:17.899Z,67.04
2024-04-12T18:50:45.817Z,66.92
2024-04-12T18:53:18.324Z,66.30
2024-04-12T18:55:51.277Z,64.42
2024-04-12T18:58:18.619Z,64.42
2024-04-12T19:00:49.236Z,64.96
2024-04-12T19:03:16.707Z,65.86
2024-04-12T19:05:44.451Z,64.42
2024-04-12T19:08:12.467Z,64.32
2024-04-12T19:10:39.357Z,63.46
2024-04-12T19:13:08.024Z,64.44
2024-04-12T19:15:38.932Z,64.10
2024-04-12T19:18:08.871Z,63.54
2024-04-12T19:20:45.458Z,62.09
2024-04-12T19:23:12.515Z,65.32
2024-04-12T19:25:39.774Z,66.32
2024-04-12T19:28:06.816Z,64.74
2024-04-12T19:30:37.480Z,63.30
2024-04-12T19:33:04.984Z,64.62
2024-04-12T19:35:32.448Z,64.67
2024-04-12T19:37:59.735Z,65.56
2024-04-12T19:40:27.013Z,64.22
2024-04-12T19:42:54.141Z,64.72
2024-04-12T19:45:24.089Z,62.21
2024-04-12T19:47:54.950Z,62.94
2024-04-12T19:50:22.013Z,62.44
2024-04-12T19:52:54.689Z,60.72
2024-04-12T19:55:24.478Z,60.17
2024-04-12T19:57:52.662Z,59.38
2024-04-12T20:00:21.046Z,59.05
2024-04-12T20:02:48.345Z,61.02
2024-04-12T20:05:16.233Z,62.55
2024-04-12T20:07:43.197Z,64.15
2024-04-12T20:10:15.203Z,63.18
2024-04-12T20:12:42.788Z,66.23
2024-04-12T20:15:09.704Z,64.24
2024-04-12T20:17:41.173Z,67.50
2024-04-12T20:20:11.507Z,68.78
2024-04-12T20:22:38.787Z,68.86
2024-04-12T20:25:06.481Z,67.57
2024-04-12T20:27:33.665Z,68.99
2024-04-12T20:30:01.058Z,67.00
2024-04-12T20:32:30.927Z,65.99
2024-04-12T20:34:57.867Z,65.28
2024-04-12T20:37:25.502Z,69.58
2024-04-12T20:39:53.326Z,69.54
2024-04-12T20:42:20.580Z,66.95
2024-04-12T20:44:47.947Z,68.63
2024-04-12T20:47:17.976Z,69.36
2024-04-12T20:49:45.955Z,66.58
2024-04-12T20:52:13.258Z,68.61
2024-04-12T20:54:40.107Z,70.16
2024-04-12T20:57:10.246Z,72.26
2024-04-12T20:59:39.448Z,68.58
2024-04-12T21:02:06.337Z,72.57
2024-04-12T21:04:40.191Z,68.66
2024-04-12T21:07:09.726Z,72.48
2024-04-12T21:09:38.458Z,72.80
2024-04-12T21:12:06.060Z,72.58
2024-04-12T21:14:33.030Z,75.22
2024-04-12T21:16:59.884Z,70.48
2024-04-12T21:19:26.885Z,72.25
2024-04-12T21:21:54.117Z,74.02
2024-04-12T21:24:21.058Z,73.83
2024-04-12T21:26:47.996Z,75.64
2024-04-12T21:29:14.889Z,75.94
2024-04-12T21:31:42.007Z,72.02
2024-04-12T21:34:09.416Z,74.96
2024-04-12T21:36:36.833Z,75.16
2024-04-12T21:39:03.776Z,73.83
2024-04-12T21:41:30.964Z,74.11
2024-04-12T21:43:58.107Z,73.89
2024-04-12T21:46:26.264Z,73.08
2024-04-12T21:48:54.358Z,74.07
2024-04-12T21:51:22.351Z,71.37
2024-04-12T21:53:52.395Z,73.72
2024-04-12T21:56:20.227Z,76.66
2024-04-12T21:58:48.643Z,76.58
2024-04-12T22:01:21.101Z,76.35
2024-04-12T22:03:49.153Z,76.65
2024-04-12T22:06:17.009Z,78.44
2024-04-12T22:08:44.913Z,78.56
2024-04-12T22:11:12.189Z,78.66
2024-04-12T22:13:39.570Z,78.69
2024-04-12T22:16:07.879Z,78.33
2024-04-12T22:18:35.586Z,79.01
2024-04-12T22:21:03.475Z,81.05
2024-04-12T22:23:31.582Z,80.46
2024-04-12T22:25:59.039Z,81.49
2024-04-12T22:28:31.944Z,80.41
2024-04-12T22:30:59.331Z,80.52
2024-04-12T22:33:26.285Z,81.20
2024-04-12T22:35:53.550Z,81.25
2024-04-12T22:38:20.408Z,82.17
2024-04-12T22:40:47.761Z,82.26
2024-04-12T22:43:14.653Z,82.33
2024-04-12T22:45:41.983Z,83.26
2024-04-12T22:48:11.724Z,82.99
2024-04-12T22:50:38.669Z,82.29
2024-04-12T22:53:06.212Z,80.61
2024-04-12T22:55:33.135Z,79.30
2024-04-12T22:58:00.335Z,80.64
2024-04-12T23:00:28.118Z,80.82
2024-04-12T23:02:56.180Z,81.58
2024-04-12T23:05:23.457Z,80.72
2024-04-12T23:07:50.773Z,81.07
2024-04-12T23:10:18.201Z,82.30
2024-04-12T23:12:45.101Z,82.71
2024-04-12T23:15:12.365Z,82.26
2024-04-12T23:17:42.551Z,81.33
2024-04-12T23:20:09.569Z,81.30
2024-04-12T23:22:36.898Z,80.78
2024-04-12T23:25:03.932Z,79.99
2024-04-12T23:27:30.890Z,79.88
2024-04-12T23:30:00.867Z,79.57
2024-04-12T23:32:27.840Z,79.05
2024-04-12T23:34:55.211Z,79.46
2024-04-12T23:37:22.674Z,79.99
2024-04-12T23:39:50.887Z,80.13
2024-04-12T23:42:17.771Z,80.27
2024-04-12T23:44:47.758Z,80.12
2024-04-12T23:47:15.437Z,80.40
2024-04-12T23:49:42.589Z,81.63
2024-04-12T23:52:09.447Z,80.72
2024-04-12T23:54:36.878Z,82.16
2024-04-12T23:57:05.644Z,83.02
2024-04-12T23:59:35.546Z,81.96
